createdAt,value
2024-02-29T00:00:18.157Z,79.21
2024-02-29T00:02:45.845Z,79.62
2024-02-29T00:05:13.959Z,79.50
2024-02-29T00:07:42.180Z,79.32
2024-02-29T00:10:10.740Z,79.68
2024-02-29T00:12:39.804Z,79.85
2024-02-29T00:15:08.792Z,80.20
2024-02-29T00:17:37.904Z,80.00
2024-02-29T00:20:10.353Z,80.29
2024-02-29T00:22:39.018Z,80.44
2024-02-29T00:25:07.476Z,80.08
2024-02-29T00:27:35.353Z,80.86
2024-02-29T00:30:03.076Z,80.45
2024-02-29T00:32:30.744Z,80.56
2024-02-29T00:34:59.790Z,80.17
2024-02-29T00:37:29.415Z,80.50
2024-02-29T00:39:57.324Z,80.12
2024-02-29T00:42:25.127Z,80.22
2024-02-29T00:44:52.761Z,80.79
2024-02-29T00:47:23.048Z,80.36
2024-02-29T00:49:50.774Z,80.70
2024-02-29T00:52:19.801Z,80.44
2024-02-29T00:54:47.499Z,80.34
2024-02-29T00:57:15.185Z,80.22
2024-02-29T00:59:41.871Z,80.31
2024-02-29T01:02:09.513Z,80.33
2024-02-29T01:04:37.197Z,80.06
2024-02-29T01:07:04.984Z,80.45
2024-02-29T01:09:34.165Z,80.15
2024-02-29T01:12:01.963Z,79.50
2024-02-29T01:14:29.681Z,79.85
2024-02-29T01:16:58.073Z,79.75
2024-02-29T01:19:25.721Z,79.63
2024-02-29T01:21:53.493Z,78.98
2024-02-29T01:24:21.174Z,79.20
2024-02-29T01:26:50.150Z,79.14
2024-02-29T01:29:18.582Z,79.00
2024-02-29T01:31:46.293Z,78.69
2024-02-29T01:34:14.145Z,78.67
2024-02-29T01:36:44.925Z,78.49
2024-02-29T01:39:12.580Z,78.37
2024-02-29T01:41:40.289Z,78.69
2024-02-29T01:44:09.261Z,78.47
2024-02-29T01:46:36.919Z,78.52
2024-02-29T01:49:04.864Z,77.95
2024-02-29T01:51:33.509Z,77.89
2024-02-29T01:54:01.192Z,77.04
2024-02-29T01:56:29.231Z,77.48
2024-02-29T01:58:57.883Z,76.99
2024-02-29T02:01:27.264Z,77.06
2024-02-29T02:03:55.014Z,77.39
2024-02-29T02:06:22.748Z,77.31
2024-02-29T02:08:50.437Z,77.31
2024-02-29T02:11:18.204Z,76.72
2024-02-29T02:13:45.957Z,76.74
2024-02-29T02:16:14.082Z,75.95
2024-02-29T02:18:43.162Z,76.09
2024-02-29T02:21:12.218Z,76.54
2024-02-29T02:23:40.048Z,75.93
2024-02-29T02:26:07.687Z,76.00
2024-02-29T02:28:35.339Z,75.69
2024-02-29T02:31:03.261Z,75.64
2024-02-29T02:33:31.027Z,76.16
2024-02-29T02:35:58.826Z,76.07
2024-02-29T02:38:28.078Z,75.96
2024-02-29T02:40:55.708Z,75.65
2024-02-29T02:43:23.444Z,74.87
2024-02-29T02:45:51.161Z,75.35
2024-02-29T02:48:18.846Z,75.65
2024-02-29T02:50:46.576Z,75.31
2024-02-29T02:53:14.274Z,75.69
2024-02-29T02:55:43.311Z,75.57
2024-02-29T02:58:11.204Z,75.49
2024-02-29T03:00:39.035Z,75.03
2024-02-29T03:03:06.830Z,75.14
2024-02-29T03:05:34.454Z,74.84
2024-02-29T03:08:02.671Z,74.69
2024-02-29T03:10:30.300Z,75.22
2024-02-29T03:12:59.374Z,74.60
2024-02-29T03:15:27.188Z,74.47
2024-02-29T03:17:57.145Z,74.51
2024-02-29T03:20:24.910Z,74.26
2024-02-29T03:22:52.865Z,74.65
2024-02-29T03:25:21.227Z,73.88
2024-02-29T03:27:49.700Z,74.10
2024-02-29T03:30:19.272Z,73.70
2024-02-29T03:32:47.132Z,74.44
2024-02-29T03:35:14.909Z,73.99
2024-02-29T03:37:42.546Z,73.34
2024-02-29T03:40:11.348Z,73.79
2024-02-29T03:42:40.834Z,73.47
2024-02-29T03:45:09.543Z,73.32
2024-02-29T03:47:38.666Z,74.14
2024-02-29T03:50:07.521Z,73.27
2024-02-29T03:52:35.174Z,73.88
2024-02-29T03:55:03.155Z,73.20
2024-02-29T03:57:30.847Z,73.83
2024-02-29T03:59:58.525Z,72.46
2024-02-29T04:02:26.283Z,72.27
2024-02-29T04:04:55.630Z,72.83
2024-02-29T04:07:23.397Z,72.78
2024-02-29T04:09:55.708Z,72.19
2024-02-29T04:12:23.627Z,72.08
2024-02-29T04:14:51.320Z,72.53
2024-02-29T04:17:19.250Z,72.44
2024-02-29T04:19:47.054Z,72.05
2024-02-29T04:22:17.052Z,73.05
2024-02-29T04:24:44.906Z,72.04
2024-02-29T04:27:12.670Z,72.79
2024-02-29T04:29:40.318Z,72.23
2024-02-29T04:32:08.246Z,71.76
2024-02-29T04:34:35.933Z,71.95
2024-02-29T04:37:04.231Z,72.41
2024-02-29T04:39:33.277Z,71.92
2024-02-29T04:42:00.958Z,72.10
2024-02-29T04:44:29.728Z,71.90
2024-02-29T04:46:57.394Z,71.40
2024-02-29T04:49:25.070Z,72.44
2024-02-29T04:51:52.750Z,72.14
2024-02-29T04:54:20.483Z,72.03
2024-02-29T04:56:49.483Z,72.11
2024-02-29T04:59:17.311Z,71.73
2024-02-29T05:01:46.229Z,71.95
2024-02-29T05:04:14.129Z,71.72
2024-02-29T05:06:41.867Z,70.35
2024-02-29T05:09:09.826Z,69.73
2024-02-29T05:11:39.684Z,70.29
2024-02-29T05:14:09.071Z,70.56
2024-02-29T05:16:36.865Z,69.62
2024-02-29T05:19:04.704Z,70.09
2024-02-29T05:21:32.394Z,70.33
2024-02-29T05:24:00.063Z,70.19
2024-02-29T05:26:27.714Z,68.90
2024-02-29T05:28:56.833Z,67.83
2024-02-29T05:31:26.052Z,68.58
2024-02-29T05:33:53.779Z,67.85
2024-02-29T05:36:21.465Z,68.07
2024-02-29T05:38:51.649Z,68.22
2024-02-29T05:41:19.721Z,68.73
2024-02-29T05:43:47.524Z,67.49
2024-02-29T05:46:15.599Z,68.11
2024-02-29T05:48:44.797Z,68.21
2024-02-29T05:51:12.701Z,68.43
2024-02-29T05:53:40.627Z,67.48
2024-02-29T05:56:08.278Z,67.44
2024-02-29T05:58:35.921Z,67.27
2024-02-29T06:01:04.355Z,67.61
2024-02-29T06:03:32.358Z,67.01
2024-02-29T06:06:02.340Z,67.86
2024-02-29T06:08:30.263Z,67.75
2024-02-29T06:10:58.402Z,66.74
2024-02-29T06:13:26.227Z,66.51
2024-02-29T06:15:53.925Z,67.48
2024-02-29T06:18:21.623Z,66.90
2024-02-29T06:20:49.270Z,66.47
2024-02-29T06:23:18.303Z,65.90
2024-02-29T06:25:45.950Z,67.30
2024-02-29T06:28:13.800Z,66.51
2024-02-29T06:30:41.570Z,66.40
2024-02-29T06:33:09.308Z,66.42
2024-02-29T06:35:37.046Z,66.08
2024-02-29T06:38:04.820Z,66.45
2024-02-29T06:40:33.821Z,66.03
2024-02-29T06:43:01.541Z,66.47
2024-02-29T06:45:29.249Z,67.26
2024-02-29T06:47:58.378Z,67.21
2024-02-29T06:50:26.120Z,66.69
2024-02-29T06:52:55.046Z,67.33
2024-02-29T06:55:22.990Z,65.94
2024-02-29T06:57:52.324Z,65.44
2024-02-29T07:00:20.710Z,65.21
2024-02-29T07:02:48.379Z,66.73
2024-02-29T07:05:16.225Z,65.91
2024-02-29T07:07:45.969Z,65.38
2024-02-29T07:10:14.139Z,65.29
2024-02-29T07:12:42.522Z,65.35
2024-02-29T07:15:12.167Z,65.35
2024-02-29T07:17:39.875Z,65.17
2024-02-29T07:20:14.175Z,65.44
2024-02-29T07:22:42.885Z,64.82
2024-02-29T07:25:11.388Z,65.97
2024-02-29T07:27:40.209Z,64.72
2024-02-29T07:30:08.587Z,63.18
2024-02-29T07:32:37.918Z,62.95
2024-02-29T07:35:06.164Z,64.56
2024-02-29T07:37:34.002Z,62.87
2024-02-29T07:40:02.296Z,64.43
2024-02-29T07:42:30.223Z,63.43
2024-02-29T07:44:58.437Z,64.65
2024-02-29T07:47:26.124Z,63.69
2024-02-29T07:49:55.156Z,64.09
2024-02-29T07:52:22.860Z,64.52
2024-02-29T07:54:50.895Z,64.50
2024-02-29T07:57:18.684Z,64.25
2024-02-29T07:59:46.845Z,62.08
2024-02-29T08:02:14.680Z,62.99
2024-02-29T08:04:44.986Z,63.45
2024-02-29T08:07:14.258Z,63.40
2024-02-29T08:09:42.276Z,60.29
2024-02-29T08:12:10.249Z,63.14
2024-02-29T08:14:37.954Z,60.84
2024-02-29T08:17:06.824Z,61.64
2024-02-29T08:19:34.506Z,61.55
2024-02-29T08:22:02.170Z,60.70
2024-02-29T08:24:31.215Z,62.26
2024-02-29T08:26:58.890Z,61.75
2024-02-29T08:29:26.570Z,58.63
2024-02-29T08:31:54.525Z,61.52
2024-02-29T08:34:22.295Z,59.74
2024-02-29T08:36:51.084Z,60.22
2024-02-29T08:39:18.900Z,61.24
2024-02-29T08:41:48.410Z,58.16
2024-02-29T08:44:16.982Z,58.33
2024-02-29T08:46:44.878Z,60.99
2024-02-29T08:49:12.622Z,58.99
2024-02-29T08:51:40.356Z,58.34
2024-02-29T08:54:10.519Z,58.85
2024-02-29T08:56:38.420Z,59.64
2024-02-29T08:59:07.454Z,60.34
2024-02-29T09:01:35.211Z,61.11
2024-02-29T09:04:03.059Z,58.81
2024-02-29T09:06:40.720Z,57.37
2024-02-29T09:09:09.503Z,59.19
2024-02-29T09:11:37.434Z,60.01
2024-02-29T09:14:05.208Z,56.74
2024-02-29T09:16:35.014Z,57.80
2024-02-29T09:19:04.368Z,56.70
2024-02-29T09:21:31.368Z,56.86
2024-02-29T09:23:59.274Z,56.14
2024-02-29T09:26:27.048Z,55.37
2024-02-29T09:28:55.348Z,58.15
2024-02-29T09:31:23.169Z,54.77
2024-02-29T09:33:54.623Z,53.48
2024-02-29T09:36:22.558Z,57.13
2024-02-29T09:38:50.267Z,55.27
2024-02-29T09:41:32.565Z,57.70
2024-02-29T09:44:07.498Z,54.07
2024-02-29T09:46:35.183Z,55.22
2024-02-29T09:49:05.464Z,55.66
2024-02-29T09:51:34.049Z,53.49
2024-02-29T09:54:03.000Z,56.20
2024-02-29T09:56:30.726Z,56.16
2024-02-29T09:59:01.379Z,55.82
2024-02-29T10:01:31.771Z,55.62
2024-02-29T10:04:00.418Z,53.97
2024-02-29T10:06:29.552Z,53.92
2024-02-29T10:08:57.240Z,53.41
2024-02-29T10:11:29.139Z,55.10
2024-02-29T10:13:58.375Z,52.61
2024-02-29T10:16:28.602Z,54.08
2024-02-29T10:18:56.798Z,53.66
2024-02-29T10:21:24.760Z,56.24
2024-02-29T10:23:58.233Z,54.21
2024-02-29T10:26:25.883Z,51.93
2024-02-29T10:28:53.582Z,54.41
2024-02-29T10:31:21.436Z,53.14
2024-02-29T10:33:49.842Z,53.40
2024-02-29T10:36:17.598Z,53.70
2024-02-29T10:38:45.264Z,54.63
2024-02-29T10:41:16.836Z,53.64
2024-02-29T10:43:46.873Z,52.66
2024-02-29T10:46:17.312Z,55.30
2024-02-29T10:48:50.775Z,53.15
2024-02-29T10:51:27.147Z,54.11
2024-02-29T10:54:07.727Z,54.71
2024-02-29T10:56:38.017Z,53.99
2024-02-29T10:59:08.302Z,55.22
2024-02-29T11:01:37.665Z,54.55
2024-02-29T11:04:07.012Z,54.31
2024-02-29T11:06:39.830Z,51.81
2024-02-29T11:09:10.305Z,53.83
2024-02-29T11:11:39.817Z,51.74
2024-02-29T11:14:12.062Z,54.56
2024-02-29T11:16:41.151Z,52.56
2024-02-29T11:19:12.491Z,54.72
2024-02-29T11:21:40.634Z,53.12
2024-02-29T11:24:09.669Z,53.14
2024-02-29T11:26:39.673Z,54.75
2024-02-29T11:29:14.108Z,54.31
2024-02-29T11:31:46.010Z,54.87
2024-02-29T11:34:13.722Z,54.56
2024-02-29T11:36:42.924Z,54.21
2024-02-29T11:39:11.704Z,53.06
2024-02-29T11:41:40.793Z,53.11
2024-02-29T11:44:09.087Z,52.05
2024-02-29T11:46:36.771Z,53.51
2024-02-29T11:49:04.625Z,53.74
2024-02-29T11:51:32.889Z,52.13
2024-02-29T11:54:00.670Z,53.31
2024-02-29T11:56:28.425Z,53.03
2024-02-29T11:58:57.412Z,53.25
2024-02-29T12:01:25.164Z,54.48
2024-02-29T12:03:53.262Z,53.89
2024-02-29T12:06:21.766Z,54.78
2024-02-29T12:08:50.432Z,51.84
2024-02-29T12:11:18.718Z,52.80
2024-02-29T12:13:46.614Z,54.65
2024-02-29T12:16:16.229Z,52.77
2024-02-29T12:18:44.740Z,53.13
2024-02-29T12:21:12.666Z,55.35
2024-02-29T12:23:41.515Z,53.22
2024-02-29T12:26:11.029Z,53.15
2024-02-29T12:28:39.563Z,53.62
2024-02-29T12:31:08.600Z,54.17
2024-02-29T12:33:40.050Z,54.28
2024-02-29T12:36:08.705Z,52.73
2024-02-29T12:38:36.762Z,52.26
2024-02-29T12:41:06.498Z,53.58
2024-02-29T12:43:34.605Z,54.08
2024-02-29T12:46:03.844Z,53.35
2024-02-29T12:48:31.866Z,51.28
2024-02-29T12:51:00.911Z,52.61
2024-02-29T12:53:28.688Z,51.82
2024-02-29T12:55:56.382Z,53.79
2024-02-29T12:58:24.168Z,53.53
2024-02-29T13:00:51.981Z,53.54
2024-02-29T13:03:20.094Z,52.54
2024-02-29T13:05:47.835Z,52.46
2024-02-29T13:08:16.855Z,51.77
2024-02-29T13:10:44.526Z,52.56
2024-02-29T13:13:12.701Z,53.00
2024-02-29T13:15:40.478Z,52.16
2024-02-29T13:18:08.351Z,53.07
2024-02-29T13:20:36.428Z,51.92
2024-02-29T13:23:04.082Z,52.16
2024-02-29T13:25:34.302Z,53.83
2024-02-29T13:28:02.444Z,52.41
2024-02-29T13:30:30.161Z,54.62
2024-02-29T13:32:57.891Z,54.56
2024-02-29T13:35:25.643Z,53.33
2024-02-29T13:37:53.304Z,54.71
2024-02-29T13:40:21.039Z,53.43
2024-02-29T13:42:50.265Z,54.30
2024-02-29T13:45:17.934Z,53.69
2024-02-29T13:47:50.253Z,53.09
2024-02-29T13:50:19.864Z,54.59
2024-02-29T13:52:47.642Z,52.90
2024-02-29T13:55:15.862Z,52.74
2024-02-29T13:57:43.977Z,51.78
2024-02-29T14:00:13.575Z,52.47
2024-02-29T14:02:41.256Z,53.38
2024-02-29T14:05:09.576Z,53.24
2024-02-29T14:07:37.304Z,54.85
2024-02-29T14:10:06.049Z,51.89
2024-02-29T14:12:34.588Z,52.64
2024-02-29T14:15:02.335Z,53.83
2024-02-29T14:17:31.447Z,54.58
2024-02-29T14:19:59.193Z,52.18
2024-02-29T14:22:26.908Z,53.95
2024-02-29T14:24:54.849Z,54.04
2024-02-29T14:27:24.026Z,53.41
2024-02-29T14:29:51.695Z,54.47
2024-02-29T14:32:19.419Z,52.15
2024-02-29T14:34:48.407Z,52.64
2024-02-29T14:37:16.532Z,51.66
2024-02-29T14:39:44.526Z,53.51
2024-02-29T14:42:12.339Z,54.11
2024-02-29T14:44:40.039Z,51.18
2024-02-29T14:47:08.628Z,53.04
2024-02-29T14:49:36.387Z,51.94
2024-02-29T14:52:07.120Z,53.14
2024-02-29T14:54:35.315Z,52.64
2024-02-29T14:57:03.294Z,52.45
2024-02-29T14:59:30.973Z,52.44
2024-02-29T15:01:58.768Z,50.90
2024-02-29T15:04:26.581Z,52.37
2024-02-29T15:06:54.435Z,52.24
2024-02-29T15:09:23.659Z,51.59
2024-02-29T15:11:51.292Z,54.14
2024-02-29T15:14:19.051Z,54.12
2024-02-29T15:16:46.733Z,51.70
2024-02-29T15:19:14.695Z,53.03
2024-02-29T15:21:42.464Z,53.64
2024-02-29T15:24:10.430Z,53.91
2024-02-29T15:26:40.952Z,52.69
2024-02-29T15:29:08.889Z,52.04
2024-02-29T15:31:38.722Z,52.07
2024-02-29T15:34:06.488Z,54.26
2024-02-29T15:36:34.504Z,52.72
2024-02-29T15:39:03.321Z,52.87
2024-02-29T15:41:30.995Z,54.50
2024-02-29T15:43:59.983Z,53.28
2024-02-29T15:46:28.005Z,53.93
2024-02-29T15:48:55.872Z,52.20
2024-02-29T15:51:25.070Z,52.44
2024-02-29T15:53:52.792Z,53.16
2024-02-29T15:56:20.547Z,52.85
2024-02-29T15:58:48.330Z,51.26
2024-02-29T16:01:17.905Z,52.79
2024-02-29T16:03:45.622Z,51.52
2024-02-29T16:06:13.808Z,52.03
2024-02-29T16:08:41.721Z,53.13
2024-02-29T16:11:09.928Z,53.77
2024-02-29T16:13:37.635Z,53.45
2024-02-29T16:16:06.153Z,53.01
2024-02-29T16:18:35.279Z,52.58
2024-02-29T16:21:06.867Z,53.48
2024-02-29T16:23:35.731Z,52.89
2024-02-29T16:26:04.498Z,53.64
2024-02-29T16:28:32.420Z,52.58
2024-02-29T16:31:00.124Z,53.15
2024-02-29T16:33:27.802Z,53.24
2024-02-29T16:35:56.967Z,52.67
2024-02-29T16:38:25.114Z,53.32
2024-02-29T16:40:55.568Z,53.03
2024-02-29T16:43:23.720Z,50.31
2024-02-29T16:45:51.707Z,50.53
2024-02-29T16:48:19.512Z,52.27
2024-02-29T16:50:47.433Z,50.98
2024-02-29T16:53:16.538Z,52.67
2024-02-29T16:55:44.231Z,52.41
2024-02-29T16:58:12.242Z,51.18
2024-02-29T17:00:40.128Z,51.33
2024-02-29T17:03:08.030Z,51.45
2024-02-29T17:05:35.725Z,52.13
2024-02-29T17:08:03.596Z,51.31
2024-02-29T17:10:32.871Z,52.13
2024-02-29T17:13:01.044Z,52.63
2024-02-29T17:15:28.789Z,49.93
2024-02-29T17:17:56.580Z,50.98
2024-02-29T17:20:24.417Z,50.92
2024-02-29T17:22:52.080Z,52.38
2024-02-29T17:25:19.833Z,52.28
2024-02-29T17:27:48.968Z,52.47
2024-02-29T17:30:16.876Z,52.78
2024-02-29T17:32:44.858Z,52.82
2024-02-29T17:35:12.557Z,53.18
2024-02-29T17:37:40.279Z,53.80
2024-02-29T17:40:09.294Z,52.11
2024-02-29T17:42:37.045Z,52.71
2024-02-29T17:45:06.812Z,53.22
2024-02-29T17:47:34.567Z,53.29
2024-02-29T17:50:02.238Z,52.77
2024-02-29T17:52:29.900Z,53.27
2024-02-29T17:54:59.122Z,54.66
2024-02-29T17:57:26.884Z,54.41
2024-02-29T17:59:54.559Z,52.77
2024-02-29T18:02:23.879Z,53.31
2024-02-29T18:04:52.204Z,51.35
2024-02-29T18:07:20.143Z,52.17
2024-02-29T18:09:48.147Z,52.77
2024-02-29T18:12:15.858Z,52.07
2024-02-29T18:14:43.640Z,53.07
2024-02-29T18:17:11.306Z,52.88
2024-02-29T18:19:40.623Z,52.88
2024-02-29T18:22:08.393Z,53.31
2024-02-29T18:24:39.563Z,53.30
2024-02-29T18:27:07.908Z,52.95
2024-02-29T18:29:35.643Z,53.63
2024-02-29T18:32:03.358Z,51.94
2024-02-29T18:34:31.146Z,50.69
2024-02-29T18:37:00.233Z,52.60
2024-02-29T18:39:28.047Z,52.21
2024-02-29T18:41:56.496Z,52.56
2024-02-29T18:44:24.370Z,51.05
2024-02-29T18:46:52.214Z,51.19
2024-02-29T18:49:20.896Z,52.44
2024-02-29T18:51:50.138Z,52.15
2024-02-29T18:54:19.908Z,52.43
2024-02-29T18:56:48.761Z,51.30
2024-02-29T18:59:16.579Z,52.07
2024-02-29T19:01:45.251Z,52.31
2024-02-29T19:04:13.499Z,52.74
2024-02-29T19:06:41.192Z,51.69
2024-02-29T19:09:08.996Z,52.45
2024-02-29T19:11:40.938Z,53.22
2024-02-29T19:14:08.677Z,53.47
2024-02-29T19:16:40.261Z,52.98
2024-02-29T19:19:08.144Z,53.03
2024-02-29T19:21:37.542Z,54.07
2024-02-29T19:24:05.904Z,53.22
2024-02-29T19:26:33.621Z,53.49
2024-02-29T19:29:02.633Z,54.30
2024-02-29T19:31:30.379Z,53.81
2024-02-29T19:33:58.180Z,53.85
2024-02-29T19:36:27.114Z,53.46
2024-02-29T19:38:55.054Z,53.91
2024-02-29T19:41:22.826Z,53.27
2024-02-29T19:43:50.586Z,54.35
2024-02-29T19:46:19.846Z,53.83
2024-02-29T19:48:47.681Z,53.34
2024-02-29T19:51:15.615Z,53.56
2024-02-29T19:53:44.685Z,53.29
2024-02-29T19:56:12.487Z,52.26
2024-02-29T19:58:40.177Z,52.98
2024-02-29T20:01:08.062Z,52.84
2024-02-29T20:03:37.272Z,53.51
2024-02-29T20:06:05.442Z,53.30
2024-02-29T20:08:33.124Z,54.17
2024-02-29T20:11:00.885Z,53.12
2024-02-29T20:13:28.702Z,53.85
2024-02-29T20:15:56.405Z,54.03
2024-02-29T20:18:24.771Z,54.59
2024-02-29T20:20:53.841Z,53.79
2024-02-29T20:23:22.207Z,53.72
2024-02-29T20:25:51.365Z,53.53
2024-02-29T20:28:19.729Z,53.13
2024-02-29T20:30:48.267Z,53.70
2024-02-29T20:33:16.460Z,53.90
2024-02-29T20:35:44.350Z,53.80
2024-02-29T20:38:14.589Z,52.75
2024-02-29T20:40:42.400Z,54.27
2024-02-29T20:43:10.141Z,53.84
2024-02-29T20:45:37.823Z,55.31
2024-02-29T20:48:06.402Z,55.00
2024-02-29T20:50:34.145Z,54.82
2024-02-29T20:53:02.071Z,53.10
2024-02-29T20:55:31.297Z,52.89
2024-02-29T20:57:59.106Z,54.58
2024-02-29T21:00:26.788Z,54.42
2024-02-29T21:02:54.500Z,54.63
2024-02-29T21:05:22.179Z,53.48
2024-02-29T21:07:49.906Z,52.45
2024-02-29T21:10:18.841Z,52.64
2024-02-29T21:12:48.128Z,54.18
2024-02-29T21:15:16.615Z,53.94
2024-02-29T21:17:46.222Z,54.07
2024-02-29T21:20:14.152Z,54.82
2024-02-29T21:22:45.038Z,54.32
2024-02-29T21:25:13.140Z,55.67
2024-02-29T21:27:40.907Z,55.18
2024-02-29T21:30:11.683Z,54.70
2024-02-29T21:32:39.876Z,55.14
2024-02-29T21:35:08.260Z,55.71
2024-02-29T21:37:37.249Z,54.76
2024-02-29T21:40:06.373Z,55.03
2024-02-29T21:42:34.199Z,56.24
2024-02-29T21:45:01.909Z,55.84
2024-02-29T21:47:31.031Z,56.29
2024-02-29T21:49:58.740Z,54.38
2024-02-29T21:52:26.590Z,55.79
2024-02-29T21:54:54.365Z,54.64
2024-02-29T21:57:22.020Z,55.39
2024-02-29T21:59:49.765Z,56.03
2024-02-29T22:02:17.457Z,55.79
2024-02-29T22:04:46.479Z,55.97
2024-02-29T22:07:14.285Z,55.70
2024-02-29T22:09:42.000Z,54.66
2024-02-29T22:12:10.647Z,54.87
2024-02-29T22:14:38.397Z,55.84
2024-02-29T22:17:06.106Z,55.57
2024-02-29T22:19:33.826Z,55.78
2024-02-29T22:22:02.920Z,56.50
2024-02-29T22:24:30.618Z,57.02
2024-02-29T22:26:58.744Z,56.69
2024-02-29T22:29:25.493Z,56.81
2024-02-29T22:31:53.243Z,56.79
2024-02-29T22:34:20.945Z,57.70
2024-02-29T22:36:48.678Z,58.34
2024-02-29T22:39:17.743Z,58.76
2024-02-29T22:41:52.971Z,58.57
2024-02-29T22:44:25.083Z,58.45
2024-02-29T22:46:52.767Z,59.57
2024-02-29T22:49:20.493Z,58.97
2024-02-29T22:51:48.200Z,59.40
2024-02-29T22:54:18.235Z,60.14
2024-02-29T22:56:45.904Z,60.02
2024-02-29T22:59:13.727Z,60.09
2024-02-29T23:01:46.315Z,60.27
2024-02-29T23:04:14.580Z,60.28
2024-02-29T23:06:42.562Z,61.05
2024-02-29T23:09:10.208Z,60.76
2024-02-29T23:11:39.840Z,61.29
2024-02-29T23:14:07.506Z,60.56
2024-02-29T23:16:35.337Z,60.31
2024-02-29T23:19:03.106Z,61.28
2024-02-29T23:21:30.904Z,61.19
2024-02-29T23:23:58.535Z,61.02
2024-02-29T23:26:26.272Z,60.86
2024-02-29T23:28:55.287Z,61.56
2024-02-29T23:31:23.146Z,61.67
2024-02-29T23:33:52.064Z,61.88
2024-02-29T23:36:19.768Z,61.78
2024-02-29T23:38:47.420Z,61.38
2024-02-29T23:41:15.045Z,61.35
2024-02-29T23:43:42.721Z,61.55
2024-02-29T23:46:11.733Z,62.04
2024-02-29T23:48:39.858Z,61.31
2024-02-29T23:51:07.556Z,62.56
2024-02-29T23:53:35.211Z,62.02
2024-02-29T23:56:02.975Z,62.72
2024-02-29T23:58:30.727Z,62.26
